sensor_id;sensor_type;location;lat;lon;timestamp;P1;durP1;ratioP1;P2;durP2;ratioP2
10661;SDS011;5379;51.034;7.006;2024-01-15T00:02:25;10.67;;;9.50;;
10661;SDS011;5379;51.034;7.006;2024-01-15T00:04:52;12.10;;;10.87;;
10661;SDS011;5379;51.034;7.006;2024-01-15T00:07:18;13.07;;;10.27;;
10661;SDS011;5379;51.034;7.006;2024-01-15T00:09:45;11.17;;;9.30;;
10661;SDS011;5379;51.034;7.006;2024-01-15T00:12:12;16.60;;;11.93;;
10661;SDS011;5379;51.034;7.006;2024-01-15T00:14:39;20.70;;;10.77;;
10661;SDS011;5379;51.034;7.006;2024-01-15T00:17:07;10.77;;;9.77;;
10661;SDS011;5379;51.034;7.006;2024-01-15T00:19:35;28.63;;;10.47;;
10661;SDS011;5379;51.034;7.006;2024-01-15T00:22:02;13.40;;;11.77;;
10661;SDS011;5379;51.034;7.006;2024-01-15T00:24:29;16.87;;;11.97;;
10661;SDS011;5379;51.034;7.006;2024-01-15T00:26:56;20.67;;;13.03;;
10661;SDS011;5379;51.034;7.006;2024-01-15T00:29:23;21.10;;;12.67;;
10661;SDS011;5379;51.034;7.006;2024-01-15T00:31:50;12.43;;;10.87;;
10661;SDS011;5379;51.034;7.006;2024-01-15T00:34:17;11.23;;;9.93;;
10661;SDS011;5379;51.034;7.006;2024-01-15T00:36:46;15.87;;;12.43;;
10661;SDS011;5379;51.034;7.006;2024-01-15T00:39:13;12.40;;;10.27;;
10661;SDS011;5379;51.034;7.006;2024-01-15T00:41:41;12.00;;;10.80;;
10661;SDS011;5379;51.034;7.006;2024-01-15T00:44:08;14.80;;;11.77;;
10661;SDS011;5379;51.034;7.006;2024-01-15T00:46:41;15.17;;;11.53;;
10661;SDS011;5379;51.034;7.006;2024-01-15T00:49:09;9.73;;;8.80;;
10661;SDS011;5379;51.034;7.006;2024-01-15T00:51:36;17.77;;;12.30;;
10661;SDS011;5379;51.034;7.006;2024-01-15T00:54:05;17.03;;;11.23;;
10661;SDS011;5379;51.034;7.006;2024-01-15T00:56:32;13.30;;;12.00;;
10661;SDS011;5379;51.034;7.006;2024-01-15T00:58:59;16.47;;;13.23;;
10661;SDS011;5379;51.034;7.006;2024-01-15T05:31:31;7.10;;;6.40;;
10661;SDS011;5379;51.034;7.006;2024-01-15T05:33:57;6.40;;;5.90;;
10661;SDS011;5379;51.034;7.006;2024-01-15T05:36:24;6.93;;;6.33;;
10661;SDS011;5379;51.034;7.006;2024-01-15T05:38:51;28.80;;;6.93;;
10661;SDS011;5379;51.034;7.006;2024-01-15T05:41:18;9.53;;;7.40;;
10661;SDS011;5379;51.034;7.006;2024-01-15T05:43:45;8.07;;;6.43;;
10661;SDS011;5379;51.034;7.006;2024-01-15T05:46:12;7.53;;;6.70;;
10661;SDS011;5379;51.034;7.006;2024-01-15T05:48:41;7.67;;;6.80;;
10661;SDS011;5379;51.034;7.006;2024-01-15T05:51:09;6.60;;;6.00;;
10661;SDS011;5379;51.034;7.006;2024-01-15T05:53:36;8.10;;;5.97;;
10661;SDS011;5379;51.034;7.006;2024-01-15T05:56:05;8.80;;;6.90;;
10661;SDS011;5379;51.034;7.006;2024-01-15T05:58:32;7.03;;;6.33;;
10661;SDS011;5379;51.034;7.006;2024-01-15T06:00:59;6.37;;;5.77;;
10661;SDS011;5379;51.034;7.006;2024-01-15T06:03:26;6.77;;;6.13;;
10661;SDS011;5379;51.034;7.006;2024-01-15T06:05:55;11.83;;;6.03;;
10661;SDS011;5379;51.034;7.006;2024-01-15T06:08:22;6.67;;;5.97;;
10661;SDS011;5379;51.034;7.006;2024-01-15T06:10:48;7.47;;;5.60;;
10661;SDS011;5379;51.034;7.006;2024-01-15T06:13:16;7.20;;;5.37;;
10661;SDS011;5379;51.034;7.006;2024-01-15T06:15:42;10.70;;;5.57;;
10661;SDS011;5379;51.034;7.006;2024-01-15T06:18:09;9.33;;;5.57;;
10661;SDS011;5379;51.034;7.006;2024-01-15T06:20:36;5.70;;;5.20;;
10661;SDS011;5379;51.034;7.006;2024-01-15T06:23:05;6.93;;;5.97;;
10661;SDS011;5379;51.034;7.006;2024-01-15T06:25:32;5.13;;;4.73;;
10661;SDS011;5379;51.034;7.006;2024-01-15T06:27:59;5.37;;;4.87;;
10661;SDS011;5379;51.034;7.006;2024-01-15T06:30:26;8.70;;;6.70;;
10661;SDS011;5379;51.034;7.006;2024-01-15T06:32:55;6.33;;;5.73;;
10661;SDS011;5379;51.034;7.006;2024-01-15T06:35:21;6.43;;;5.93;;
10661;SDS011;5379;51.034;7.006;2024-01-15T06:37:48;7.83;;;5.97;;
10661;SDS011;5379;51.034;7.006;2024-01-15T06:40:17;7.33;;;6.73;;
10661;SDS011;5379;51.034;7.006;2024-01-15T06:42:43;5.97;;;5.57;;
10661;SDS011;5379;51.034;7.006;2024-01-15T06:45:10;4.77;;;4.40;;
10661;SDS011;5379;51.034;7.006;2024-01-15T06:47:37;5.20;;;4.70;;
10661;SDS011;5379;51.034;7.006;2024-01-15T06:50:05;4.53;;;4.23;;
10661;SDS011;5379;51.034;7.006;2024-01-15T06:52:32;7.27;;;4.87;;
10661;SDS011;5379;51.034;7.006;2024-01-15T06:54:59;7.50;;;5.73;;
10661;SDS011;5379;51.034;7.006;2024-01-15T06:57:27;7.90;;;6.67;;
10661;SDS011;5379;51.034;7.006;2024-01-15T06:59:54;5.37;;;4.97;;
10661;SDS011;5379;51.034;7.006;2024-01-15T07:02:21;6.03;;;5.53;;
10661;SDS011;5379;51.034;7.006;2024-01-15T07:04:48;6.17;;;5.57;;
10661;SDS011;5379;51.034;7.006;2024-01-15T07:07:15;5.40;;;5.00;;
10661;SDS011;5379;51.034;7.006;2024-01-15T07:09:42;12.80;;;6.33;;
10661;SDS011;5379;51.034;7.006;2024-01-15T07:12:09;6.00;;;5.50;;
10661;SDS011;5379;51.034;7.006;2024-01-15T07:14:38;6.07;;;5.57;;
10661;SDS011;5379;51.034;7.006;2024-01-15T07:17:04;6.13;;;5.60;;
10661;SDS011;5379;51.034;7.006;2024-01-15T07:19:31;7.63;;;6.27;;
10661;SDS011;5379;51.034;7.006;2024-01-15T07:21:58;20.73;;;5.90;;
10661;SDS011;5379;51.034;7.006;2024-01-15T07:24:25;5.23;;;4.83;;
10661;SDS011;5379;51.034;7.006;2024-01-15T07:26:52;6.10;;;5.50;;
10661;SDS011;5379;51.034;7.006;2024-01-15T07:29:19;5.43;;;5.03;;
10661;SDS011;5379;51.034;7.006;2024-01-15T07:31:49;5.40;;;4.97;;
10661;SDS011;5379;51.034;7.006;2024-01-15T07:34:16;4.53;;;4.17;;
10661;SDS011;5379;51.034;7.006;2024-01-15T07:36:43;5.27;;;4.83;;
10661;SDS011;5379;51.034;7.006;2024-01-15T07:39:10;6.87;;;6.17;;
10661;SDS011;5379;51.034;7.006;2024-01-15T07:41:37;6.07;;;5.57;;
10661;SDS011;5379;51.034;7.006;2024-01-15T07:44:04;6.30;;;5.73;;
10661;SDS011;5379;51.034;7.006;2024-01-15T07:46:31;6.43;;;5.93;;
10661;SDS011;5379;51.034;7.006;2024-01-15T07:48:59;13.93;;;6.20;;
10661;SDS011;5379;51.034;7.006;2024-01-15T07:51:26;4.80;;;4.50;;
10661;SDS011;5379;51.034;7.006;2024-01-15T07:53:53;6.80;;;5.90;;
10661;SDS011;5379;51.034;7.006;2024-01-15T07:56:21;6.17;;;5.57;;
10661;SDS011;5379;51.034;7.006;2024-01-15T07:58:47;8.17;;;6.10;;
10661;SDS011;5379;51.034;7.006;2024-01-15T08:01:14;7.77;;;6.90;;
10661;SDS011;5379;51.034;7.006;2024-01-15T08:03:42;5.83;;;5.40;;
10661;SDS011;5379;51.034;7.006;2024-01-15T08:06:10;8.53;;;7.37;;
10661;SDS011;5379;51.034;7.006;2024-01-15T08:08:37;10.53;;;6.83;;
10661;SDS011;5379;51.034;7.006;2024-01-15T08:11:04;8.17;;;6.13;;
10661;SDS011;5379;51.034;7.006;2024-01-15T08:13:31;8.83;;;6.40;;
10661;SDS011;5379;51.034;7.006;2024-01-15T08:15:58;7.47;;;6.77;;
10661;SDS011;5379;51.034;7.006;2024-01-15T08:18:28;9.53;;;8.10;;
10661;SDS011;5379;51.034;7.006;2024-01-15T08:20:56;7.50;;;6.80;;
10661;SDS011;5379;51.034;7.006;2024-01-15T08:23:24;8.33;;;7.53;;
10661;SDS011;5379;51.034;7.006;2024-01-15T08:25:53;7.77;;;6.87;;
10661;SDS011;5379;51.034;7.006;2024-01-15T08:28:20;7.97;;;7.17;;
10661;SDS011;5379;51.034;7.006;2024-01-15T08:30:47;8.70;;;7.90;;
10661;SDS011;5379;51.034;7.006;2024-01-15T08:33:14;6.43;;;5.90;;
10661;SDS011;5379;51.034;7.006;2024-01-15T08:35:41;7.03;;;6.43;;
10661;SDS011;5379;51.034;7.006;2024-01-15T08:38:07;8.50;;;7.83;;
10661;SDS011;5379;51.034;7.006;2024-01-15T08:40:35;8.43;;;7.43;;
10661;SDS011;5379;51.034;7.006;2024-01-15T08:43:02;6.93;;;6.43;;
10661;SDS011;5379;51.034;7.006;2024-01-15T08:45:31;8.07;;;7.27;;
10661;SDS011;5379;51.034;7.006;2024-01-15T08:47:58;7.40;;;6.67;;
10661;SDS011;5379;51.034;7.006;2024-01-15T08:50:26;7.60;;;7.00;;
10661;SDS011;5379;51.034;7.006;2024-01-15T08:52:54;5.87;;;5.40;;
10661;SDS011;5379;51.034;7.006;2024-01-15T08:55:20;7.13;;;6.43;;
10661;SDS011;5379;51.034;7.006;2024-01-15T08:57:49;9.97;;;7.43;;
10661;SDS011;5379;51.034;7.006;2024-01-15T09:00:16;7.47;;;6.73;;
10661;SDS011;5379;51.034;7.006;2024-01-15T09:02:44;13.93;;;7.40;;
10661;SDS011;5379;51.034;7.006;2024-01-15T09:05:11;7.80;;;6.07;;
10661;SDS011;5379;51.034;7.006;2024-01-15T09:07:38;7.23;;;6.63;;
10661;SDS011;5379;51.034;7.006;2024-01-15T09:10:05;8.13;;;7.30;;
10661;SDS011;5379;51.034;7.006;2024-01-15T09:12:32;8.90;;;5.90;;
10661;SDS011;5379;51.034;7.006;2024-01-15T09:15:00;6.40;;;5.83;;
10661;SDS011;5379;51.034;7.006;2024-01-15T09:17:29;7.93;;;7.13;;
10661;SDS011;5379;51.034;7.006;2024-01-15T09:19:56;7.37;;;6.67;;
10661;SDS011;5379;51.034;7.006;2024-01-15T09:22:22;8.27;;;7.47;;
10661;SDS011;5379;51.034;7.006;2024-01-15T09:24:49;6.67;;;6.03;;
10661;SDS011;5379;51.034;7.006;2024-01-15T09:27:16;6.73;;;6.20;;
10661;SDS011;5379;51.034;7.006;2024-01-15T09:29:43;6.23;;;5.13;;
10661;SDS011;5379;51.034;7.006;2024-01-15T09:32:12;6.73;;;6.13;;
10661;SDS011;5379;51.034;7.006;2024-01-15T09:34:41;6.93;;;5.73;;
10661;SDS011;5379;51.034;7.006;2024-01-15T09:37:07;15.60;;;6.60;;
10661;SDS011;5379;51.034;7.006;2024-01-15T09:39:34;4.50;;;4.20;;
10661;SDS011;5379;51.034;7.006;2024-01-15T09:42:01;6.83;;;5.20;;
10661;SDS011;5379;51.034;7.006;2024-01-15T09:44:29;4.83;;;4.43;;
10661;SDS011;5379;51.034;7.006;2024-01-15T09:46:57;6.53;;;5.17;;
10661;SDS011;5379;51.034;7.006;2024-01-15T09:49:25;4.77;;;4.37;;
10661;SDS011;5379;51.034;7.006;2024-01-15T09:51:52;6.60;;;4.30;;
10661;SDS011;5379;51.034;7.006;2024-01-15T09:54:21;4.40;;;4.10;;
10661;SDS011;5379;51.034;7.006;2024-01-15T09:56:48;4.63;;;4.23;;
10661;SDS011;5379;51.034;7.006;2024-01-15T09:59:15;4.93;;;4.10;;
10661;SDS011;5379;51.034;7.006;2024-01-15T10:01:43;3.20;;;3.00;;
10661;SDS011;5379;51.034;7.006;2024-01-15T10:04:12;3.63;;;3.43;;
10661;SDS011;5379;51.034;7.006;2024-01-15T10:06:42;3.97;;;3.67;;
10661;SDS011;5379;51.034;7.006;2024-01-15T10:09:12;4.23;;;3.93;;
10661;SDS011;5379;51.034;7.006;2024-01-15T10:11:39;3.33;;;3.13;;
10661;SDS011;5379;51.034;7.006;2024-01-15T10:14:07;3.50;;;3.30;;
10661;SDS011;5379;51.034;7.006;2024-01-15T10:16:35;3.77;;;3.47;;
10661;SDS011;5379;51.034;7.006;2024-01-15T10:19:02;4.10;;;3.70;;
10661;SDS011;5379;51.034;7.006;2024-01-15T10:21:30;2.87;;;2.67;;
10661;SDS011;5379;51.034;7.006;2024-01-15T10:24:00;6.47;;;3.90;;
10661;SDS011;5379;51.034;7.006;2024-01-15T10:26:29;3.57;;;3.33;;
10661;SDS011;5379;51.034;7.006;2024-01-15T10:28:56;3.87;;;3.30;;
10661;SDS011;5379;51.034;7.006;2024-01-15T10:31:23;8.83;;;2.87;;
10661;SDS011;5379;51.034;7.006;2024-01-15T10:33:50;3.33;;;3.13;;
10661;SDS011;5379;51.034;7.006;2024-01-15T10:36:17;4.00;;;3.70;;
10661;SDS011;5379;51.034;7.006;2024-01-15T10:38:44;2.90;;;2.80;;
10661;SDS011;5379;51.034;7.006;2024-01-15T10:41:12;2.60;;;2.50;;
10661;SDS011;5379;51.034;7.006;2024-01-15T10:43:39;3.90;;;3.53;;
10661;SDS011;5379;51.034;7.006;2024-01-15T10:46:07;3.73;;;2.90;;
10661;SDS011;5379;51.034;7.006;2024-01-15T10:48:35;2.57;;;2.47;;
10661;SDS011;5379;51.034;7.006;2024-01-15T10:51:04;2.97;;;2.73;;
10661;SDS011;5379;51.034;7.006;2024-01-15T10:53:35;2.20;;;2.10;;
10661;SDS011;5379;51.034;7.006;2024-01-15T10:56:05;1.80;;;1.80;;
10661;SDS011;5379;51.034;7.006;2024-01-15T10:58:34;1.87;;;1.87;;
10661;SDS011;5379;51.034;7.006;2024-01-15T11:01:03;2.07;;;1.97;;
10661;SDS011;5379;51.034;7.006;2024-01-15T11:03:31;1.80;;;1.77;;
10661;SDS011;5379;51.034;7.006;2024-01-15T11:06:00;1.60;;;1.60;;
10661;SDS011;5379;51.034;7.006;2024-01-15T11:08:28;2.03;;;1.93;;
10661;SDS011;5379;51.034;7.006;2024-01-15T11:10:56;1.67;;;1.53;;
10661;SDS011;5379;51.034;7.006;2024-01-15T11:13:39;1.53;;;1.43;;
10661;SDS011;5379;51.034;7.006;2024-01-15T11:16:10;1.80;;;1.80;;
10661;SDS011;5379;51.034;7.006;2024-01-15T11:18:39;1.20;;;1.20;;
10661;SDS011;5379;51.034;7.006;2024-01-15T11:21:19;1.20;;;1.20;;
10661;SDS011;5379;51.034;7.006;2024-01-15T11:23:47;1.53;;;1.43;;
10661;SDS011;5379;51.034;7.006;2024-01-15T11:26:30;1.77;;;1.67;;
10661;SDS011;5379;51.034;7.006;2024-01-15T11:29:05;1.70;;;1.70;;
10661;SDS011;5379;51.034;7.006;2024-01-15T11:37:18;1.07;;;1.07;;
10661;SDS011;5379;51.034;7.006;2024-01-15T11:39:45;1.00;;;1.00;;
10661;SDS011;5379;51.034;7.006;2024-01-15T11:42:13;2.30;;;1.47;;
10661;SDS011;5379;51.034;7.006;2024-01-15T11:44:42;1.03;;;1.03;;
10661;SDS011;5379;51.034;7.006;2024-01-15T11:47:10;0.93;;;0.80;;
10661;SDS011;5379;51.034;7.006;2024-01-15T11:49:58;1.13;;;1.13;;
10661;SDS011;5379;51.034;7.006;2024-01-15T11:52:26;1.13;;;1.13;;
10661;SDS011;5379;51.034;7.006;2024-01-15T11:54:55;1.17;;;1.17;;
10661;SDS011;5379;51.034;7.006;2024-01-15T11:57:30;1.17;;;1.17;;
10661;SDS011;5379;51.034;7.006;2024-01-15T12:00:07;1.27;;;1.10;;
10661;SDS011;5379;51.034;7.006;2024-01-15T12:02:36;1.40;;;1.40;;
10661;SDS011;5379;51.034;7.006;2024-01-15T12:05:03;1.47;;;1.43;;
10661;SDS011;5379;51.034;7.006;2024-01-15T12:07:32;1.73;;;1.63;;
10661;SDS011;5379;51.034;7.006;2024-01-15T12:09:59;1.60;;;1.50;;
10661;SDS011;5379;51.034;7.006;2024-01-15T12:12:28;1.93;;;1.83;;
10661;SDS011;5379;51.034;7.006;2024-01-15T12:15:02;1.67;;;1.37;;
10661;SDS011;5379;51.034;7.006;2024-01-15T12:17:31;1.90;;;1.83;;
10661;SDS011;5379;51.034;7.006;2024-01-15T12:19:59;2.03;;;1.90;;
10661;SDS011;5379;51.034;7.006;2024-01-15T12:25:48;2.60;;;2.50;;
10661;SDS011;5379;51.034;7.006;2024-01-15T12:28:15;4.63;;;2.60;;
10661;SDS011;5379;51.034;7.006;2024-01-15T12:30:46;2.30;;;2.20;;
10661;SDS011;5379;51.034;7.006;2024-01-15T12:33:17;7.23;;;2.93;;
10661;SDS011;5379;51.034;7.006;2024-01-15T12:35:44;2.30;;;2.10;;
10661;SDS011;5379;51.034;7.006;2024-01-15T12:38:11;3.17;;;2.93;;
10661;SDS011;5379;51.034;7.006;2024-01-15T12:40:38;2.73;;;2.53;;
10661;SDS011;5379;51.034;7.006;2024-01-15T12:43:06;2.30;;;2.20;;
10661;SDS011;5379;51.034;7.006;2024-01-15T12:45:33;5.80;;;2.43;;
10661;SDS011;5379;51.034;7.006;2024-01-15T12:48:02;3.23;;;1.87;;
10661;SDS011;5379;51.034;7.006;2024-01-15T12:50:32;3.53;;;2.13;;
10661;SDS011;5379;51.034;7.006;2024-01-15T12:52:59;2.83;;;2.63;;
10661;SDS011;5379;51.034;7.006;2024-01-15T12:55:26;2.77;;;2.57;;
10661;SDS011;5379;51.034;7.006;2024-01-15T12:57:54;2.87;;;2.43;;
10661;SDS011;5379;51.034;7.006;2024-01-15T13:00:21;2.03;;;1.93;;
10661;SDS011;5379;51.034;7.006;2024-01-15T13:02:50;3.03;;;2.03;;
10661;SDS011;5379;51.034;7.006;2024-01-15T13:05:17;2.27;;;1.87;;
10661;SDS011;5379;51.034;7.006;2024-01-15T13:07:47;2.00;;;1.40;;
10661;SDS011;5379;51.034;7.006;2024-01-15T13:10:14;2.13;;;1.87;;
10661;SDS011;5379;51.034;7.006;2024-01-15T13:12:41;3.10;;;2.03;;
10661;SDS011;5379;51.034;7.006;2024-01-15T13:15:09;6.17;;;1.60;;
10661;SDS011;5379;51.034;7.006;2024-01-15T13:17:37;1.40;;;1.30;;
10661;SDS011;5379;51.034;7.006;2024-01-15T13:20:05;1.23;;;1.20;;
10661;SDS011;5379;51.034;7.006;2024-01-15T13:22:33;1.40;;;1.27;;
10661;SDS011;5379;51.034;7.006;2024-01-15T13:25:02;1.63;;;1.53;;
10661;SDS011;5379;51.034;7.006;2024-01-15T13:27:32;2.00;;;1.53;;
10661;SDS011;5379;51.034;7.006;2024-01-15T13:30:00;1.80;;;1.70;;
10661;SDS011;5379;51.034;7.006;2024-01-15T13:32:28;4.13;;;1.97;;
10661;SDS011;5379;51.034;7.006;2024-01-15T13:34:55;1.63;;;1.60;;
10661;SDS011;5379;51.034;7.006;2024-01-15T13:37:22;1.73;;;1.63;;
10661;SDS011;5379;51.034;7.006;2024-01-15T13:39:49;1.70;;;1.27;;
10661;SDS011;5379;51.034;7.006;2024-01-15T13:42:20;1.40;;;1.30;;
10661;SDS011;5379;51.034;7.006;2024-01-15T13:44:48;1.87;;;1.50;;
10661;SDS011;5379;51.034;7.006;2024-01-15T13:47:16;1.10;;;1.00;;
10661;SDS011;5379;51.034;7.006;2024-01-15T13:49:43;1.33;;;1.23;;
10661;SDS011;5379;51.034;7.006;2024-01-15T13:52:10;1.07;;;1.07;;
10661;SDS011;5379;51.034;7.006;2024-01-15T13:54:37;0.93;;;0.93;;
10661;SDS011;5379;51.034;7.006;2024-01-15T13:57:04;1.17;;;1.07;;
10661;SDS011;5379;51.034;7.006;2024-01-15T13:59:33;1.10;;;1.10;;
10661;SDS011;5379;51.034;7.006;2024-01-15T14:02:00;0.97;;;0.97;;
10661;SDS011;5379;51.034;7.006;2024-01-15T14:04:27;0.80;;;0.80;;
10661;SDS011;5379;51.034;7.006;2024-01-15T14:06:54;1.37;;;1.27;;
10661;SDS011;5379;51.034;7.006;2024-01-15T14:09:21;1.70;;;1.10;;
10661;SDS011;5379;51.034;7.006;2024-01-15T14:11:48;0.70;;;0.70;;
10661;SDS011;5379;51.034;7.006;2024-01-15T14:14:15;1.03;;;1.00;;
10661;SDS011;5379;51.034;7.006;2024-01-15T14:16:44;0.93;;;0.93;;
10661;SDS011;5379;51.034;7.006;2024-01-15T14:19:11;0.87;;;0.87;;
10661;SDS011;5379;51.034;7.006;2024-01-15T14:21:40;1.10;;;1.10;;
10661;SDS011;5379;51.034;7.006;2024-01-15T14:24:07;1.30;;;1.20;;
10661;SDS011;5379;51.034;7.006;2024-01-15T14:26:34;1.17;;;1.00;;
10661;SDS011;5379;51.034;7.006;2024-01-15T14:29:01;1.00;;;1.00;;
10661;SDS011;5379;51.034;7.006;2024-01-15T14:31:30;0.93;;;0.90;;
10661;SDS011;5379;51.034;7.006;2024-01-15T14:34:00;1.20;;;1.10;;
10661;SDS011;5379;51.034;7.006;2024-01-15T14:36:28;1.40;;;1.30;;
10661;SDS011;5379;51.034;7.006;2024-01-15T14:38:55;1.03;;;1.03;;
10661;SDS011;5379;51.034;7.006;2024-01-15T14:41:23;1.00;;;1.00;;
10661;SDS011;5379;51.034;7.006;2024-01-15T14:43:50;1.07;;;1.07;;
10661;SDS011;5379;51.034;7.006;2024-01-15T14:46:17;0.63;;;0.63;;
10661;SDS011;5379;51.034;7.006;2024-01-15T14:48:44;1.57;;;1.47;;
10661;SDS011;5379;51.034;7.006;2024-01-15T14:51:13;1.20;;;1.20;;
10661;SDS011;5379;51.034;7.006;2024-01-15T14:53:40;1.60;;;1.10;;
10661;SDS011;5379;51.034;7.006;2024-01-15T14:56:08;1.03;;;1.03;;
10661;SDS011;5379;51.034;7.006;2024-01-15T14:58:36;1.47;;;0.90;;
10661;SDS011;5379;51.034;7.006;2024-01-15T15:01:03;2.07;;;1.40;;
10661;SDS011;5379;51.034;7.006;2024-01-15T15:03:30;1.17;;;1.13;;
10661;SDS011;5379;51.034;7.006;2024-01-15T15:05:57;1.30;;;1.20;;
10661;SDS011;5379;51.034;7.006;2024-01-15T15:08:26;1.20;;;1.20;;
10661;SDS011;5379;51.034;7.006;2024-01-15T15:10:53;1.13;;;1.03;;
10661;SDS011;5379;51.034;7.006;2024-01-15T15:13:21;0.87;;;0.87;;
10661;SDS011;5379;51.034;7.006;2024-01-15T15:15:50;0.90;;;0.90;;
10661;SDS011;5379;51.034;7.006;2024-01-15T15:18:18;1.10;;;1.10;;
10661;SDS011;5379;51.034;7.006;2024-01-15T15:20:46;0.70;;;0.70;;
10661;SDS011;5379;51.034;7.006;2024-01-15T15:23:14;1.03;;;1.03;;
10661;SDS011;5379;51.034;7.006;2024-01-15T15:25:43;0.70;;;0.70;;
10661;SDS011;5379;51.034;7.006;2024-01-15T15:28:10;1.10;;;1.10;;
10661;SDS011;5379;51.034;7.006;2024-01-15T15:30:39;1.20;;;1.20;;
10661;SDS011;5379;51.034;7.006;2024-01-15T15:33:07;1.03;;;1.03;;
10661;SDS011;5379;51.034;7.006;2024-01-15T15:35:34;1.17;;;1.17;;
10661;SDS011;5379;51.034;7.006;2024-01-15T15:38:01;0.80;;;0.80;;
10661;SDS011;5379;51.034;7.006;2024-01-15T15:40:28;1.50;;;1.40;;
10661;SDS011;5379;51.034;7.006;2024-01-15T15:42:57;1.20;;;1.20;;
10661;SDS011;5379;51.034;7.006;2024-01-15T15:45:24;1.57;;;1.50;;
10661;SDS011;5379;51.034;7.006;2024-01-15T15:47:51;1.27;;;1.27;;
10661;SDS011;5379;51.034;7.006;2024-01-15T15:50:18;1.60;;;1.50;;
10661;SDS011;5379;51.034;7.006;2024-01-15T15:52:46;1.40;;;1.30;;
10661;SDS011;5379;51.034;7.006;2024-01-15T15:55:14;1.20;;;1.13;;
10661;SDS011;5379;51.034;7.006;2024-01-15T15:57:41;1.60;;;1.60;;
10661;SDS011;5379;51.034;7.006;2024-01-15T16:00:10;1.00;;;1.00;;
10661;SDS011;5379;51.034;7.006;2024-01-15T16:02:38;1.00;;;1.00;;
10661;SDS011;5379;51.034;7.006;2024-01-15T16:05:06;1.30;;;1.30;;
10661;SDS011;5379;51.034;7.006;2024-01-15T16:07:34;1.60;;;1.50;;
10661;SDS011;5379;51.034;7.006;2024-01-15T16:10:02;2.03;;;1.93;;
10661;SDS011;5379;51.034;7.006;2024-01-15T16:12:29;1.80;;;1.70;;
10661;SDS011;5379;51.034;7.006;2024-01-15T16:14:57;1.93;;;1.67;;
10661;SDS011;5379;51.034;7.006;2024-01-15T16:17:27;2.00;;;1.90;;
10661;SDS011;5379;51.034;7.006;2024-01-15T16:19:56;2.13;;;2.03;;
10661;SDS011;5379;51.034;7.006;2024-01-15T16:22:23;2.63;;;1.20;;
10661;SDS011;5379;51.034;7.006;2024-01-15T16:24:50;1.70;;;1.60;;
10661;SDS011;5379;51.034;7.006;2024-01-15T16:27:18;2.00;;;1.80;;
10661;SDS011;5379;51.034;7.006;2024-01-15T16:29:45;1.70;;;1.60;;
10661;SDS011;5379;51.034;7.006;2024-01-15T16:32:12;1.07;;;1.07;;
10661;SDS011;5379;51.034;7.006;2024-01-15T16:34:41;1.57;;;1.47;;
10661;SDS011;5379;51.034;7.006;2024-01-15T16:37:08;1.40;;;1.40;;
10661;SDS011;5379;51.034;7.006;2024-01-15T16:39:35;2.00;;;1.70;;
10661;SDS011;5379;51.034;7.006;2024-01-15T16:42:02;1.63;;;1.53;;
10661;SDS011;5379;51.034;7.006;2024-01-15T16:44:30;1.83;;;1.73;;
10661;SDS011;5379;51.034;7.006;2024-01-15T16:46:57;1.77;;;1.67;;
10661;SDS011;5379;51.034;7.006;2024-01-15T16:49:26;1.53;;;1.53;;
10661;SDS011;5379;51.034;7.006;2024-01-15T16:51:54;1.77;;;1.70;;
10661;SDS011;5379;51.034;7.006;2024-01-15T16:54:21;4.80;;;2.20;;
10661;SDS011;5379;51.034;7.006;2024-01-15T16:56:49;1.80;;;1.73;;
10661;SDS011;5379;51.034;7.006;2024-01-15T16:59:16;1.70;;;1.60;;
10661;SDS011;5379;51.034;7.006;2024-01-15T17:01:43;2.20;;;2.00;;
10661;SDS011;5379;51.034;7.006;2024-01-15T17:04:11;2.20;;;2.10;;
10661;SDS011;5379;51.034;7.006;2024-01-15T17:06:38;2.27;;;2.17;;
10661;SDS011;5379;51.034;7.006;2024-01-15T17:09:07;2.60;;;2.40;;
10661;SDS011;5379;51.034;7.006;2024-01-15T17:11:34;3.90;;;2.43;;
10661;SDS011;5379;51.034;7.006;2024-01-15T17:14:01;2.10;;;2.00;;
10661;SDS011;5379;51.034;7.006;2024-01-15T17:16:30;3.00;;;2.80;;
10661;SDS011;5379;51.034;7.006;2024-01-15T17:18:57;2.60;;;2.40;;
10661;SDS011;5379;51.034;7.006;2024-01-15T17:21:24;2.53;;;2.33;;
10661;SDS011;5379;51.034;7.006;2024-01-15T17:23:51;2.93;;;2.73;;
10661;SDS011;5379;51.034;7.006;2024-01-15T17:26:20;2.40;;;2.30;;
10661;SDS011;5379;51.034;7.006;2024-01-15T17:28:50;2.10;;;1.90;;
10661;SDS011;5379;51.034;7.006;2024-01-15T17:31:18;5.43;;;2.10;;
10661;SDS011;5379;51.034;7.006;2024-01-15T17:33:45;2.63;;;2.33;;
10661;SDS011;5379;51.034;7.006;2024-01-15T17:36:12;2.10;;;2.00;;
10661;SDS011;5379;51.034;7.006;2024-01-15T17:38:39;4.67;;;2.20;;
10661;SDS011;5379;51.034;7.006;2024-01-15T17:41:06;2.10;;;1.80;;
10661;SDS011;5379;51.034;7.006;2024-01-15T17:43:35;2.67;;;2.27;;
10661;SDS011;5379;51.034;7.006;2024-01-15T17:46:02;1.70;;;1.63;;
10661;SDS011;5379;51.034;7.006;2024-01-15T17:48:30;2.50;;;2.30;;
10661;SDS011;5379;51.034;7.006;2024-01-15T17:50:58;2.30;;;2.20;;
10661;SDS011;5379;51.034;7.006;2024-01-15T17:53:25;1.90;;;1.80;;
10661;SDS011;5379;51.034;7.006;2024-01-15T17:55:53;2.23;;;2.03;;
10661;SDS011;5379;51.034;7.006;2024-01-15T17:58:20;3.03;;;2.10;;
10661;SDS011;5379;51.034;7.006;2024-01-15T18:00:48;5.73;;;2.43;;
10661;SDS011;5379;51.034;7.006;2024-01-15T18:03:16;1.60;;;1.50;;
10661;SDS011;5379;51.034;7.006;2024-01-15T18:05:43;3.70;;;2.03;;
10661;SDS011;5379;51.034;7.006;2024-01-15T18:08:10;2.03;;;1.70;;
10661;SDS011;5379;51.034;7.006;2024-01-15T18:10:38;2.00;;;1.70;;
10661;SDS011;5379;51.034;7.006;2024-01-15T18:13:05;1.43;;;1.40;;
10661;SDS011;5379;51.034;7.006;2024-01-15T18:15:32;2.03;;;1.70;;
10661;SDS011;5379;51.034;7.006;2024-01-15T18:18:01;2.03;;;1.77;;
10661;SDS011;5379;51.034;7.006;2024-01-15T18:20:28;0.87;;;0.87;;
10661;SDS011;5379;51.034;7.006;2024-01-15T18:22:56;2.10;;;1.77;;
10661;SDS011;5379;51.034;7.006;2024-01-15T18:25:24;1.90;;;1.33;;
10661;SDS011;5379;51.034;7.006;2024-01-15T18:27:51;2.37;;;1.60;;
10661;SDS011;5379;51.034;7.006;2024-01-15T18:30:18;1.87;;;1.73;;
10661;SDS011;5379;51.034;7.006;2024-01-15T18:32:46;3.23;;;1.20;;
10661;SDS011;5379;51.034;7.006;2024-01-15T18:35:14;1.60;;;1.50;;
10661;SDS011;5379;51.034;7.006;2024-01-15T18:37:43;3.60;;;1.90;;
10661;SDS011;5379;51.034;7.006;2024-01-15T18:40:11;1.57;;;1.50;;
10661;SDS011;5379;51.034;7.006;2024-01-15T18:42:38;2.13;;;2.00;;
10661;SDS011;5379;51.034;7.006;2024-01-15T18:45:06;1.97;;;1.87;;
10661;SDS011;5379;51.034;7.006;2024-01-15T18:47:34;3.00;;;2.10;;
10661;SDS011;5379;51.034;7.006;2024-01-15T18:50:01;1.97;;;1.80;;
10661;SDS011;5379;51.034;7.006;2024-01-15T18:52:30;1.33;;;1.30;;
10661;SDS011;5379;51.034;7.006;2024-01-15T18:54:57;2.13;;;2.00;;
10661;SDS011;5379;51.034;7.006;2024-01-15T18:57:25;3.30;;;1.93;;
10661;SDS011;5379;51.034;7.006;2024-01-15T18:59:52;2.10;;;1.97;;
10661;SDS011;5379;51.034;7.006;2024-01-15T19:02:19;2.57;;;2.37;;
10661;SDS011;5379;51.034;7.006;2024-01-15T19:04:46;6.27;;;2.37;;
10661;SDS011;5379;51.034;7.006;2024-01-15T19:07:13;4.10;;;2.40;;
10661;SDS011;5379;51.034;7.006;2024-01-15T19:09:42;2.40;;;2.20;;
10661;SDS011;5379;51.034;7.006;2024-01-15T19:12:09;2.03;;;1.93;;
10661;SDS011;5379;51.034;7.006;2024-01-15T19:14:36;4.63;;;2.40;;
10661;SDS011;5379;51.034;7.006;2024-01-15T19:17:03;3.67;;;2.33;;
10661;SDS011;5379;51.034;7.006;2024-01-15T19:19:30;4.10;;;2.78;;
10661;SDS011;5379;51.034;7.006;2024-01-15T19:22:02;2.87;;;2.03;;
10661;SDS011;5379;51.034;7.006;2024-01-15T19:24:29;1.60;;;1.50;;
10661;SDS011;5379;51.034;7.006;2024-01-15T19:26:58;1.90;;;1.77;;
10661;SDS011;5379;51.034;7.006;2024-01-15T19:29:25;1.77;;;1.67;;
10661;SDS011;5379;51.034;7.006;2024-01-15T19:31:53;1.90;;;1.80;;
10661;SDS011;5379;51.034;7.006;2024-01-15T19:34:20;3.03;;;2.10;;
10661;SDS011;5379;51.034;7.006;2024-01-15T19:36:47;2.27;;;2.07;;
10661;SDS011;5379;51.034;7.006;2024-01-15T19:39:15;2.83;;;2.57;;
10661;SDS011;5379;51.034;7.006;2024-01-15T19:41:44;1.73;;;1.63;;
10661;SDS011;5379;51.034;7.006;2024-01-15T19:44:12;2.03;;;1.93;;